Time;durP1;ratioP1;P1;durP2;ratioP2;P2;SDS_P1;SDS_P2;PMS_P1;PMS_P2;Temp;Humidity;BMP_temperature;BMP_pressure;BME280_temperature;BME280_humidity;BME280_pressure;Samples;Min_cycle;Max_cycle;Signal;HPM_P1;HPM_P2
2021/07/24 00:00:59;;;;;;;17.60;13.10;;;19.40;76.10;;;;;;5052800;28;20482;-78
2021/07/24 00:03:26;;;;;;;14.70;12.87;;;19.40;76.20;;;;;;5041270;28;20528;-80
2021/07/24 00:05:53;;;;;;;16.00;12.70;;;19.40;76.20;;;;;;5042721;28;20457;-79
2021/07/24 00:08:20;;;;;;;17.53;12.57;;;19.30;76.10;;;;;;5055291;28;20457;-80
2021/07/24 00:10:48;;;;;;;16.50;12.57;;;19.30;76.10;;;;;;5045342;28;20477;-81
2021/07/24 00:13:16;;;;;;;17.53;12.80;;;19.20;75.90;;;;;;5055386;28;20437;-79
2021/07/24 00:15:43;;;;;;;15.83;12.67;;;19.30;75.40;;;;;;5056161;28;20417;-80
2021/07/24 00:18:10;;;;;;;17.30;12.80;;;19.30;74.60;;;;;;5056443;28;20458;-80
2021/07/24 00:20:37;;;;;;;14.10;12.03;;;19.30;73.80;;;;;;5057421;28;20421;-80
2021/07/24 00:23:04;;;;;;;14.27;12.77;;;19.30;73.60;;;;;;5055755;28;20450;-81
2021/07/24 00:25:31;;;;;;;18.13;12.97;;;19.30;73.20;;;;;;5057228;28;20408;-81
2021/07/24 00:27:59;;;;;;;14.27;11.70;;;19.30;72.60;;;;;;5055325;28;20489;-81
2021/07/24 00:30:26;;;;;;;15.57;11.57;;;19.30;72.20;;;;;;5047763;28;20443;-81
2021/07/24 00:32:53;;;;;;;15.37;12.57;;;19.30;71.70;;;;;;5049231;28;20463;-81
2021/07/24 00:35:22;;;;;;;16.10;12.20;;;19.30;72.00;;;;;;5050346;28;20449;-81
2021/07/24 00:37:49;;;;;;;14.83;12.07;;;19.30;71.90;;;;;;5042982;28;20931;-80
2021/07/24 00:40:17;;;;;;;15.90;12.70;;;19.30;72.30;;;;;;5037331;28;20500;-79
2021/07/24 00:42:45;;;;;;;15.17;10.77;;;19.30;72.20;;;;;;5037516;28;20476;-81
2021/07/24 00:45:15;;;;;;;14.07;12.00;;;19.30;71.60;;;;;;5036688;28;20436;-78
2021/07/24 00:47:45;;;;;;;14.13;12.13;;;19.30;71.30;;;;;;5037300;28;20523;-79
2021/07/24 00:50:15;;;;;;;14.33;12.67;;;19.40;70.70;;;;;;5044819;28;20450;-79
2021/07/24 00:52:43;;;;;;;17.77;12.00;;;19.40;69.80;;;;;;5039075;28;20467;-79
2021/07/24 00:55:13;;;;;;;14.77;12.37;;;19.40;69.40;;;;;;5049428;28;20471;-78
2021/07/24 00:57:40;;;;;;;16.47;11.90;;;19.50;67.90;;;;;;5041916;28;20516;-78
2021/07/24 01:00:09;;;;;;;16.23;11.20;;;19.50;67.30;;;;;;5041065;28;20468;-78
2021/07/24 01:02:37;;;;;;;13.27;11.07;;;19.50;67.30;;;;;;5037948;28;21022;-76
2021/07/24 01:05:06;;;;;;;16.90;13.60;;;19.50;67.30;;;;;;5037351;28;20434;-81
2021/07/24 01:07:35;;;;;;;13.20;11.43;;;19.50;67.30;;;;;;5037508;28;20493;-78
2021/07/24 01:10:02;;;;;;;12.93;11.07;;;19.60;67.40;;;;;;5037620;28;20454;-78
2021/07/24 01:12:30;;;;;;;18.03;12.67;;;19.60;67.40;;;;;;5037740;28;20683;-80
2021/07/24 01:14:57;;;;;;;14.70;12.07;;;19.60;67.40;;;;;;5038213;28;20467;-79
2021/07/24 01:17:23;;;;;;;14.87;11.73;;;19.50;67.30;;;;;;5044093;28;20432;-78
2021/07/24 01:19:52;;;;;;;19.47;11.80;;;19.50;67.30;;;;;;5036443;28;20516;-78
2021/07/24 01:22:20;;;;;;;18.23;13.23;;;19.50;67.30;;;;;;5036214;28;20521;-78
2021/07/24 01:24:47;;;;;;;13.83;12.27;;;19.40;68.80;;;;;;5036081;28;20456;-78
2021/07/24 01:27:14;;;;;;;16.37;12.83;;;19.40;69.70;;;;;;5035700;28;20532;-78
2021/07/24 01:29:41;;;;;;;15.60;13.03;;;19.30;70.50;;;;;;5036401;28;20532;-78
2021/07/24 01:32:08;;;;;;;14.37;12.10;;;19.10;71.10;;;;;;5039065;28;20544;-79
2021/07/24 01:34:35;;;;;;;16.43;13.10;;;19.00;71.50;;;;;;5045712;28;20480;-80
2021/07/24 01:37:02;;;;;;;13.73;12.33;;;19.00;71.50;;;;;;5047072;28;20484;-79
2021/07/24 01:39:31;;;;;;;14.60;13.03;;;19.10;71.40;;;;;;5049193;28;20463;-79
2021/07/24 01:41:57;;;;;;;13.87;12.10;;;19.10;71.40;;;;;;5045577;28;20469;-79
2021/07/24 01:44:25;;;;;;;14.70;12.73;;;19.10;71.50;;;;;;5035817;28;20424;-78
2021/07/24 01:46:52;;;;;;;14.20;12.70;;;19.10;71.50;;;;;;5038434;28;20493;-78
2021/07/24 01:55:04;;;;;;;14.50;11.70;;;19.20;71.50;;;;;;5035524;28;20878;-79
2021/07/24 01:57:34;;;;;;;15.70;12.37;;;19.20;71.10;;;;;;5036691;28;20526;-79
2021/07/24 02:00:09;;;;;;;17.23;12.53;;;19.30;70.60;;;;;;5035337;28;20479;-78
2021/07/24 02:02:37;;;;;;;18.80;11.77;;;19.40;69.70;;;;;;5037353;28;20481;-78
2021/07/24 02:05:06;;;;;;;14.43;12.17;;;19.40;69.30;;;;;;5038776;28;20795;-78
2021/07/24 02:07:38;;;;;;;12.77;11.43;;;19.40;69.40;;;;;;5035947;28;20584;-79
2021/07/24 02:10:08;;;;;;;15.00;11.43;;;19.40;69.90;;;;;;5038264;28;20485;-79
2021/07/24 02:12:36;;;;;;;15.23;13.10;;;19.40;69.90;;;;;;5047079;28;20478;-79
2021/07/24 02:15:03;;;;;;;14.00;12.00;;;19.40;70.20;;;;;;5038679;28;20441;-81
2021/07/24 02:17:31;;;;;;;13.73;12.10;;;19.40;70.10;;;;;;5039128;28;20489;-80
2021/07/24 02:20:00;;;;;;;15.03;12.70;;;19.40;70.20;;;;;;5040940;28;20432;-80
2021/07/24 02:22:26;;;;;;;16.60;12.63;;;19.40;70.00;;;;;;5040447;28;20846;-82
2021/07/24 02:24:53;;;;;;;15.93;13.20;;;19.40;69.70;;;;;;5041271;28;20492;-82
2021/07/24 02:27:22;;;;;;;14.13;12.17;;;19.30;70.50;;;;;;5041474;28;20456;-81
2021/07/24 02:29:49;;;;;;;13.30;11.90;;;19.20;71.00;;;;;;5041562;28;20460;-81
2021/07/24 02:32:17;;;;;;;15.13;12.43;;;19.20;71.50;;;;;;5039638;28;20477;-80
2021/07/24 02:34:44;;;;;;;13.80;12.50;;;19.20;71.80;;;;;;5039222;28;20469;-80
2021/07/24 02:37:11;;;;;;;13.53;12.23;;;19.20;71.50;;;;;;5040630;28;20472;-80
2021/07/24 02:39:38;;;;;;;15.90;13.23;;;19.20;71.10;;;;;;5043011;28;20464;-81
2021/07/24 02:42:05;;;;;;;14.20;12.33;;;19.20;70.90;;;;;;5044723;28;20508;-81
2021/07/24 02:44:34;;;;;;;16.00;12.40;;;19.30;71.20;;;;;;5044376;28;20531;-81
2021/07/24 02:47:01;;;;;;;14.43;11.90;;;19.30;70.60;;;;;;5048526;28;20524;-81
2021/07/24 02:49:28;;;;;;;13.80;12.10;;;19.30;70.20;;;;;;5050959;28;20516;-81
2021/07/24 02:51:55;;;;;;;16.63;12.70;;;19.40;69.90;;;;;;5057037;28;20486;-80
2021/07/24 02:54:22;;;;;;;13.50;11.90;;;19.40;69.20;;;;;;5060718;28;20493;-80
2021/07/24 02:56:48;;;;;;;14.67;11.63;;;19.40;68.70;;;;;;5060922;28;20446;-80
2021/07/24 02:59:15;;;;;;;18.43;13.80;;;19.50;68.80;;;;;;5056434;28;20429;-81
2021/07/24 03:01:44;;;;;;;13.97;12.23;;;19.50;69.00;;;;;;5054179;28;20464;-79
2021/07/24 03:04:11;;;;;;;14.33;12.83;;;19.50;69.30;;;;;;5059629;28;20477;-80
2021/07/24 03:06:38;;;;;;;17.10;13.30;;;19.50;69.00;;;;;;5054863;28;20478;-81
2021/07/24 03:09:07;;;;;;;18.00;12.40;;;19.50;69.20;;;;;;5046796;28;20492;-80
2021/07/24 03:11:33;;;;;;;13.13;11.50;;;19.50;69.40;;;;;;5047143;28;20484;-82
2021/07/24 03:14:01;;;;;;;15.63;12.80;;;19.50;70.00;;;;;;5046416;28;20489;-81
2021/07/24 03:16:28;;;;;;;19.00;13.30;;;19.40;70.20;;;;;;5046819;28;20453;-81
2021/07/24 03:18:56;;;;;;;16.70;13.50;;;19.40;70.40;;;;;;5047820;28;20463;-81
2021/07/24 03:21:23;;;;;;;14.83;11.97;;;19.40;70.90;;;;;;5048510;28;20818;-81
2021/07/24 03:23:50;;;;;;;18.03;13.60;;;19.40;71.50;;;;;;5044676;28;20497;-79
2021/07/24 03:26:19;;;;;;;13.67;12.10;;;19.40;71.70;;;;;;5045552;28;20457;-80
2021/07/24 03:28:46;;;;;;;14.70;13.23;;;19.40;71.10;;;;;;5046274;28;20517;-79
2021/07/24 03:31:13;;;;;;;13.93;12.30;;;19.40;71.00;;;;;;5042803;28;20516;-81
2021/07/24 03:33:40;;;;;;;15.87;13.07;;;19.40;71.30;;;;;;5039314;28;20516;-79
2021/07/24 03:36:08;;;;;;;15.80;13.57;;;19.40;71.40;;;;;;5039665;28;20532;-81
2021/07/24 03:38:35;;;;;;;14.73;12.43;;;19.40;71.10;;;;;;5040465;28;20473;-80
2021/07/24 03:41:04;;;;;;;15.93;13.80;;;19.40;70.90;;;;;;5043363;28;20474;-79
2021/07/24 03:43:31;;;;;;;16.07;12.60;;;19.50;70.20;;;;;;5041347;28;20438;-80
2021/07/24 03:45:58;;;;;;;14.40;13.00;;;19.50;69.80;;;;;;5038629;28;20440;-78
2021/07/24 03:48:25;;;;;;;15.47;12.43;;;19.60;69.40;;;;;;5040518;28;20502;-78
2021/07/24 03:50:52;;;;;;;14.57;13.07;;;19.60;68.90;;;;;;5039351;28;20547;-79
2021/07/24 03:53:20;;;;;;;15.10;13.60;;;19.60;68.80;;;;;;5039601;28;20511;-78
2021/07/24 03:55:48;;;;;;;15.80;12.73;;;19.60;68.60;;;;;;5037092;28;20520;-77
2021/07/24 03:58:15;;;;;;;15.33;13.03;;;19.70;67.80;;;;;;5039466;28;20445;-79
2021/07/24 04:00:45;;;;;;;15.33;13.77;;;19.80;67.60;;;;;;5046562;28;20469;-78
2021/07/24 04:03:12;;;;;;;15.90;12.77;;;19.80;67.60;;;;;;5038354;28;20865;-80
2021/07/24 04:05:42;;;;;;;15.97;13.40;;;19.70;67.80;;;;;;5041161;28;20507;-79
2021/07/24 04:08:09;;;;;;;15.67;14.00;;;19.70;68.50;;;;;;5041146;28;20577;-79
2021/07/24 04:10:39;;;;;;;17.10;13.37;;;19.70;68.50;;;;;;5041631;28;20542;-79
2021/07/24 04:13:07;;;;;;;17.20;13.50;;;19.60;68.80;;;;;;5044410;28;20541;-81
2021/07/24 04:15:36;;;;;;;15.10;13.00;;;19.50;69.60;;;;;;5049106;28;20465;-81
2021/07/24 04:18:03;;;;;;;15.73;14.10;;;19.40;70.80;;;;;;5056068;28;20416;-79
2021/07/24 04:20:31;;;;;;;14.97;13.47;;;19.30;71.60;;;;;;5054343;28;20431;-81
2021/07/24 04:22:57;;;;;;;20.40;13.83;;;19.40;71.70;;;;;;5056447;28;20448;-81
2021/07/24 04:25:24;;;;;;;15.83;13.27;;;19.30;71.60;;;;;;5056000;28;20480;-80
2021/07/24 04:27:53;;;;;;;14.77;13.17;;;19.20;72.60;;;;;;5052328;28;20552;-80
2021/07/24 04:30:20;;;;;;;15.63;13.50;;;19.30;72.50;;;;;;5053506;28;20489;-81
2021/07/24 04:32:47;;;;;;;15.10;13.43;;;19.30;72.60;;;;;;5055580;28;20431;-81
2021/07/24 04:35:13;;;;;;;14.60;13.10;;;19.20;72.80;;;;;;5042435;28;20431;-80
2021/07/24 04:37:40;;;;;;;14.33;12.93;;;19.30;72.40;;;;;;5041942;28;20724;-80
2021/07/24 04:40:08;;;;;;;17.17;12.90;;;19.40;72.40;;;;;;5047890;28;20449;-80
2021/07/24 04:42:35;;;;;;;15.20;13.17;;;19.50;72.30;;;;;;5056278;28;20437;-80
2021/07/24 04:45:04;;;;;;;14.70;12.53;;;19.60;71.70;;;;;;5055975;28;20439;-81
2021/07/24 04:47:33;;;;;;;18.87;13.00;;;19.70;71.20;;;;;;5056707;28;20460;-81
2021/07/24 04:50:00;;;;;;;16.30;11.73;;;19.70;71.30;;;;;;5055308;28;20454;-79
2021/07/24 04:52:29;;;;;;;16.37;14.07;;;19.70;71.60;;;;;;5052314;28;20470;-80
2021/07/24 04:54:57;;;;;;;15.80;12.87;;;19.70;71.60;;;;;;5051181;28;20534;-80
2021/07/24 04:57:25;;;;;;;15.03;12.50;;;19.80;71.50;;;;;;5037361;28;20480;-79
2021/07/24 04:59:52;;;;;;;15.00;13.40;;;19.80;71.40;;;;;;5039715;28;20899;-80
2021/07/24 05:02:21;;;;;;;13.93;12.43;;;19.90;71.70;;;;;;5036018;28;20488;-79
2021/07/24 05:04:50;;;;;;;14.70;13.10;;;19.80;71.70;;;;;;5034845;28;20821;-79
2021/07/24 05:07:18;;;;;;;17.70;13.37;;;19.90;72.20;;;;;;5034466;28;20488;-81
2021/07/24 05:09:45;;;;;;;15.53;12.30;;;20.00;72.30;;;;;;5035463;28;20552;-79
2021/07/24 05:12:12;;;;;;;15.53;13.10;;;20.00;71.60;;;;;;5034749;28;20462;-79
2021/07/24 05:14:39;;;;;;;16.53;13.73;;;20.10;71.80;;;;;;5034332;28;20900;-79
2021/07/24 05:17:06;;;;;;;17.00;12.53;;;20.10;72.30;;;;;;5034808;28;20554;-79
2021/07/24 05:19:37;;;;;;;16.83;12.67;;;20.20;71.20;;;;;;5034874;28;20477;-80
2021/07/24 05:22:04;;;;;;;16.93;13.40;;;20.30;70.40;;;;;;5035308;28;20479;-79
2021/07/24 05:24:31;;;;;;;16.03;12.67;;;20.50;68.70;;;;;;5034591;28;20453;-79
2021/07/24 05:26:58;;;;;;;19.43;14.40;;;20.60;68.30;;;;;;5035672;28;20534;-79
2021/07/24 05:29:25;;;;;;;16.40;13.27;;;20.60;68.30;;;;;;5034771;28;21039;-80
2021/07/24 05:31:51;;;;;;;17.83;13.33;;;20.70;68.00;;;;;;5034721;28;20505;-80
2021/07/24 05:34:18;;;;;;;14.40;12.90;;;20.90;66.80;;;;;;5042111;28;20482;-81
2021/07/24 05:36:47;;;;;;;16.53;13.33;;;21.10;65.50;;;;;;5045591;28;20459;-80
2021/07/24 05:39:13;;;;;;;14.53;13.00;;;21.30;64.20;;;;;;5050739;28;20508;-80
2021/07/24 05:41:40;;;;;;;16.50;12.93;;;21.60;62.70;;;;;;5040154;28;20845;-80
2021/07/24 05:44:09;;;;;;;15.07;13.37;;;21.80;61.10;;;;;;5039083;28;20494;-80
2021/07/24 05:46:36;;;;;;;16.77;12.73;;;21.80;60.20;;;;;;5039508;28;20966;-80
2021/07/24 05:49:03;;;;;;;14.33;12.83;;;21.70;61.00;;;;;;5042208;28;20503;-79
2021/07/24 05:51:30;;;;;;;14.87;13.13;;;21.70;61.10;;;;;;5040639;28;20477;-81
2021/07/24 05:53:58;;;;;;;17.83;13.27;;;21.60;61.50;;;;;;5040929;28;20823;-80
2021/07/24 05:56:25;;;;;;;17.40;13.97;;;21.40;61.90;;;;;;5039865;28;20491;-80
2021/07/24 05:58:52;;;;;;;15.43;13.80;;;21.30;62.60;;;;;;5041054;28;20458;-80
2021/07/24 06:01:19;;;;;;;16.37;13.60;;;21.10;63.50;;;;;;5049734;28;20464;-79
2021/07/24 06:03:46;;;;;;;19.93;13.40;;;21.00;64.00;;;;;;5055047;28;20458;-81
2021/07/24 06:06:13;;;;;;;17.03;13.23;;;20.90;64.60;;;;;;5040692;28;20420;-79
2021/07/24 06:08:40;;;;;;;16.70;14.43;;;20.80;65.40;;;;;;5040442;28;20499;-80
2021/07/24 06:11:08;;;;;;;18.70;13.70;;;20.60;66.80;;;;;;5039704;28;20472;-80
2021/07/24 06:13:36;;;;;;;17.00;14.77;;;20.50;68.20;;;;;;5037877;28;20533;-79
2021/07/24 06:16:02;;;;;;;19.93;13.87;;;20.50;68.20;;;;;;5039362;28;20486;-82
2021/07/24 06:18:29;;;;;;;20.13;14.63;;;20.40;69.50;;;;;;5038955;28;20561;-81
2021/07/24 06:20:57;;;;;;;17.87;14.80;;;20.40;70.10;;;;;;5038845;28;20481;-79
2021/07/24 06:23:24;;;;;;;17.53;14.90;;;20.40;70.80;;;;;;5039483;28;21019;-80
2021/07/24 06:25:51;;;;;;;16.20;14.60;;;20.40;73.10;;;;;;5038326;28;20500;-81
2021/07/24 06:28:21;;;;;;;21.00;15.63;;;20.20;76.50;;;;;;5038854;28;20495;-80
2021/07/24 06:30:48;;;;;;;21.20;14.90;;;20.20;78.70;;;;;;5038799;28;20482;-81
2021/07/24 06:33:15;;;;;;;18.67;14.50;;;20.30;78.90;;;;;;5046142;28;20448;-78
2021/07/24 06:35:42;;;;;;;19.93;16.93;;;20.30;78.90;;;;;;5056930;28;20438;-79
2021/07/24 06:38:11;;;;;;;16.90;15.07;;;20.40;80.30;;;;;;5057118;28;20437;-78
2021/07/24 06:40:38;;;;;;;19.80;15.90;;;20.30;80.40;;;;;;5057382;28;20450;-78
2021/07/24 06:43:05;;;;;;;17.50;15.37;;;20.30;81.10;;;;;;5056665;28;20424;-78
2021/07/24 06:45:33;;;;;;;17.87;16.07;;;20.30;80.50;;;;;;5049441;28;20435;-81
2021/07/24 06:48:00;;;;;;;19.47;15.90;;;20.40;80.20;;;;;;5042919;28;20524;-81
2021/07/24 06:50:27;;;;;;;17.43;15.17;;;20.50;80.50;;;;;;5046961;28;20424;-79
2021/07/24 06:52:54;;;;;;;20.27;15.37;;;20.70;79.70;;;;;;5053512;28;20493;-80
2021/07/24 06:55:21;;;;;;;17.70;15.57;;;20.80;79.20;;;;;;5056319;28;20481;-82
2021/07/24 06:57:47;;;;;;;18.80;16.43;;;20.80;78.60;;;;;;5053228;28;20467;-79
2021/07/24 07:00:15;;;;;;;17.60;15.77;;;21.00;77.60;;;;;;5056598;28;20442;-80
2021/07/24 07:02:43;;;;;;;17.57;14.97;;;21.20;76.60;;;;;;5055509;28;20468;-81
2021/07/24 07:05:11;;;;;;;16.83;15.07;;;21.30;74.90;;;;;;5056212;28;20418;-80
2021/07/24 07:07:38;;;;;;;18.80;15.87;;;21.30;74.40;;;;;;5055999;28;20477;-80
2021/07/24 07:10:06;;;;;;;17.73;15.93;;;21.30;73.80;;;;;;5056046;28;20601;-80
2021/07/24 07:12:32;;;;;;;17.00;15.20;;;21.20;74.80;;;;;;5052791;28;20479;-79
2021/07/24 07:14:59;;;;;;;20.60;16.20;;;21.30;74.60;;;;;;5049430;28;20455;-80
2021/07/24 07:17:26;;;;;;;20.27;15.30;;;21.40;72.50;;;;;;5051603;28;20478;-80
2021/07/24 07:19:55;;;;;;;16.73;15.00;;;21.50;73.00;;;;;;5056368;28;20418;-80
2021/07/24 07:22:21;;;;;;;19.70;15.87;;;21.50;71.70;;;;;;5056984;28;20451;-80
2021/07/24 07:24:48;;;;;;;17.77;15.97;;;21.30;72.70;;;;;;5055114;28;20446;-80
2021/07/24 07:27:15;;;;;;;20.10;16.27;;;21.20;73.20;;;;;;5056442;28;20442;-79
2021/07/24 07:29:43;;;;;;;18.77;16.17;;;21.30;73.10;;;;;;5058282;28;20488;-81
2021/07/24 07:32:10;;;;;;;18.50;15.10;;;21.20;73.40;;;;;;5057653;28;20526;-79
2021/07/24 07:34:36;;;;;;;21.27;17.23;;;21.40;73.70;;;;;;5056110;28;20455;-78
2021/07/24 07:37:05;;;;;;;20.80;14.93;;;21.60;72.20;;;;;;5054212;28;20500;-80
2021/07/24 07:39:32;;;;;;;17.23;15.47;;;21.80;72.10;;;;;;5052919;28;20450;-82
2021/07/24 07:41:59;;;;;;;17.97;15.70;;;22.00;70.90;;;;;;5051654;28;20451;-81
2021/07/24 07:44:26;;;;;;;18.00;14.80;;;22.20;69.80;;;;;;5049886;28;20432;-80
2021/07/24 07:46:53;;;;;;;16.00;14.47;;;22.40;69.60;;;;;;5051302;28;20471;-80
2021/07/24 07:49:20;;;;;;;20.20;16.20;;;22.60;67.30;;;;;;5050213;28;20533;-79
2021/07/24 07:51:47;;;;;;;17.17;15.50;;;22.70;66.10;;;;;;5051235;28;20470;-80
2021/07/24 07:54:16;;;;;;;21.80;15.00;;;22.50;68.50;;;;;;5054643;28;20472;-80
2021/07/24 07:56:42;;;;;;;19.67;15.53;;;22.00;71.20;;;;;;5058221;28;20444;-80
2021/07/24 07:59:09;;;;;;;17.47;15.70;;;22.00;72.50;;;;;;5058470;28;20456;-79
2021/07/24 08:01:36;;;;;;;17.17;14.47;;;22.10;72.70;;;;;;5058435;28;20465;-80
2021/07/24 08:04:03;;;;;;;16.60;14.03;;;22.20;71.80;;;;;;5058250;28;20437;-80
2021/07/24 08:06:30;;;;;;;18.70;14.07;;;22.30;72.60;;;;;;5051832;28;20482;-81
2021/07/24 08:08:57;;;;;;;16.63;14.93;;;22.60;71.80;;;;;;5047753;28;20463;-80
2021/07/24 08:11:27;;;;;;;14.37;12.83;;;23.00;68.90;;;;;;5057564;28;20468;-80
2021/07/24 08:13:54;;;;;;;19.33;13.90;;;23.20;66.40;;;;;;5057873;28;20444;-79
2021/07/24 08:16:21;;;;;;;15.80;14.20;;;23.20;68.10;;;;;;5059267;28;20500;-79
2021/07/24 08:18:48;;;;;;;15.83;14.00;;;23.00;68.00;;;;;;5059606;28;20453;-80
2021/07/24 08:21:15;;;;;;;14.87;13.37;;;23.00;69.30;;;;;;5059484;28;20457;-79
2021/07/24 08:23:42;;;;;;;15.40;13.80;;;22.90;70.40;;;;;;5059114;28;20462;-79
2021/07/24 08:26:09;;;;;;;15.90;14.20;;;22.90;70.40;;;;;;5046100;28;20441;-78
2021/07/24 08:28:39;;;;;;;18.83;14.70;;;22.80;70.30;;;;;;5048331;28;20496;-79
2021/07/24 08:31:06;;;;;;;18.43;13.60;;;22.60;71.30;;;;;;5049063;28;20470;-83
2021/07/24 08:33:35;;;;;;;18.93;13.63;;;22.80;70.30;;;;;;5041513;28;20849;-79
2021/07/24 08:36:01;;;;;;;16.23;13.40;;;22.90;69.20;;;;;;5038434;28;20507;-79
2021/07/24 08:38:28;;;;;;;16.40;12.50;;;23.10;65.00;;;;;;5043492;28;20531;-79
2021/07/24 08:40:55;;;;;;;14.70;12.23;;;23.30;64.10;;;;;;5043455;28;20475;-78
2021/07/24 08:43:23;;;;;;;13.80;12.40;;;23.70;62.00;;;;;;5040423;28;20849;-80
2021/07/24 08:45:52;;;;;;;13.40;11.47;;;23.90;60.40;;;;;;5041581;28;20490;-79
2021/07/24 08:48:19;;;;;;;14.10;12.70;;;24.10;59.10;;;;;;5042677;28;20454;-79
2021/07/24 08:50:46;;;;;;;13.50;12.10;;;24.30;58.00;;;;;;5038866;28;20839;-78
2021/07/24 08:53:17;;;;;;;21.23;13.20;;;24.40;57.20;;;;;;5036694;28;20636;-78
2021/07/24 08:55:44;;;;;;;13.80;12.00;;;25.10;54.90;;;;;;5038748;28;20427;-78
2021/07/24 08:58:14;;;;;;;14.90;12.20;;;25.80;52.70;;;;;;5036654;28;20485;-78
2021/07/24 09:00:44;;;;;;;12.20;11.00;;;25.40;52.80;;;;;;5039870;28;20431;-80
2021/07/24 09:03:18;;;;;;;13.90;11.60;;;25.80;51.40;;;;;;5054135;28;20442;-79
2021/07/24 09:05:50;;;;;;;14.47;11.50;;;26.50;49.60;;;;;;5053353;28;20460;-79
2021/07/24 09:08:19;;;;;;;12.83;11.53;;;26.80;47.50;;;;;;5052721;28;20520;-80
2021/07/24 09:10:47;;;;;;;13.57;11.40;;;27.00;46.80;;;;;;5048177;28;20551;-81
2021/07/24 09:13:16;;;;;;;16.67;11.80;;;27.20;46.00;;;;;;5044843;28;20479;-81
2021/07/24 09:15:43;;;;;;;13.93;12.40;;;27.20;45.00;;;;;;5043177;28;20460;-80
2021/07/24 09:18:11;;;;;;;13.60;12.07;;;27.40;46.70;;;;;;5042823;28;20439;-81
2021/07/24 09:20:41;;;;;;;16.50;12.73;;;27.40;46.50;;;;;;5044430;28;20518;-81
2021/07/24 09:23:28;;;;;;;13.30;11.90;;;27.50;45.30;;;;;;5043960;28;20436;-80
2021/07/24 09:25:55;;;;;;;13.40;12.00;;;27.20;46.60;;;;;;5044298;28;20432;-79
2021/07/24 09:28:22;;;;;;;18.50;12.40;;;27.00;46.30;;;;;;5048420;28;20449;-79
2021/07/24 09:30:49;;;;;;;13.83;12.43;;;27.30;45.20;;;;;;5046882;28;20493;-81
2021/07/24 09:33:19;;;;;;;14.80;11.83;;;26.60;46.20;;;;;;5055382;28;20426;-79
2021/07/24 09:35:47;;;;;;;14.43;11.93;;;26.90;44.80;;;;;;5056325;28;20505;-81
2021/07/24 09:38:27;;;;;;;19.03;10.43;;;26.90;44.80;;;;;;5057251;28;20443;-80
2021/07/24 09:40:55;;;;;;;12.67;11.50;;;27.10;42.90;;;;;;5057053;28;20449;-80
2021/07/24 09:43:30;;;;;;;13.70;11.73;;;27.20;43.20;;;;;;5052671;28;20438;-83
2021/07/24 09:46:14;;;;;;;13.97;11.73;;;27.30;42.90;;;;;;5052004;28;20479;-80
2021/07/24 09:48:44;;;;;;;13.53;12.10;;;27.20;42.40;;;;;;5049656;28;20428;-80
2021/07/24 09:51:11;;;;;;;13.80;12.40;;;27.30;41.70;;;;;;5047285;28;20446;-81
2021/07/24 09:53:39;;;;;;;14.23;10.50;;;27.30;42.60;;;;;;5041265;28;20428;-80
2021/07/24 09:56:11;;;;;;;12.27;10.90;;;27.50;39.20;;;;;;5041849;28;20432;-81
2021/07/24 09:58:39;;;;;;;12.20;11.00;;;27.30;40.00;;;;;;5040429;28;20432;-81
2021/07/24 10:01:07;;;;;;;14.20;11.30;;;27.10;39.50;;;;;;5039899;28;20484;-80
2021/07/24 10:03:36;;;;;;;12.83;10.00;;;27.10;39.60;;;;;;5040296;28;20527;-81
2021/07/24 10:06:15;;;;;;;13.40;10.43;;;26.90;39.80;;;;;;5046497;28;20458;-79
2021/07/24 10:08:43;;;;;;;12.13;8.47;;;27.20;39.90;;;;;;5055362;28;20444;-80
2021/07/24 10:11:11;;;;;;;10.10;9.10;;;27.70;38.60;;;;;;5045128;28;20493;-81
2021/07/24 10:13:39;;;;;;;9.77;8.80;;;28.00;37.80;;;;;;5040286;28;20435;-81
2021/07/24 10:16:06;;;;;;;10.63;9.27;;;27.80;36.50;;;;;;5039226;28;20442;-81
2021/07/24 10:18:34;;;;;;;9.83;8.83;;;27.50;37.90;;;;;;5039967;28;20493;-79
2021/07/24 10:21:01;;;;;;;10.23;9.13;;;27.90;37.20;;;;;;5050380;28;20452;-82
2021/07/24 10:23:30;;;;;;;9.40;8.40;;;28.20;36.00;;;;;;5045175;28;20515;-79
2021/07/24 10:26:06;;;;;;;10.97;8.90;;;28.30;35.50;;;;;;5041030;28;20485;-81
2021/07/24 10:28:37;;;;;;;11.10;8.90;;;28.20;35.40;;;;;;5043991;28;20441;-80
2021/07/24 10:31:12;;;;;;;11.53;9.07;;;28.30;35.50;;;;;;5039092;28;20467;-81
2021/07/24 10:33:40;;;;;;;12.33;8.13;;;28.50;35.60;;;;;;5039591;28;20485;-80
2021/07/24 10:36:15;;;;;;;9.10;7.97;;;28.40;35.50;;;;;;5050171;28;20504;-81
2021/07/24 10:39:01;;;;;;;9.00;7.80;;;28.40;35.50;;;;;;5053996;28;20422;-80
2021/07/24 10:41:50;;;;;;;9.10;8.13;;;28.10;35.30;;;;;;5054309;28;20484;-83
2021/07/24 10:44:34;;;;;;;10.63;7.77;;;28.40;35.50;;;;;;5057467;28;20426;-83
2021/07/24 10:47:14;;;;;;;11.53;8.27;;;28.50;35.50;;;;;;5055309;28;20444;-81
2021/07/24 10:50:00;;;;;;;10.27;9.17;;;28.50;35.70;;;;;;5054935;28;20472;-82
2021/07/24 10:52:47;;;;;;;9.40;8.50;;;28.60;35.70;;;;;;5048785;28;20441;-81
2021/07/24 10:55:16;;;;;;;10.07;9.17;;;28.70;35.80;;;;;;5054180;28;20460;-81
2021/07/24 10:58:08;;;;;;;9.07;8.17;;;28.30;36.90;;;;;;5045646;28;20453;-81
2021/07/24 11:00:52;;;;;;;9.73;8.73;;;28.70;35.70;;;;;;5040255;28;20449;-80
2021/07/24 11:03:37;;;;;;;9.77;8.87;;;29.10;36.00;;;;;;5046071;28;20432;-80
2021/07/24 11:06:21;;;;;;;11.43;8.40;;;29.50;34.00;;;;;;5049145;28;20539;-81
2021/07/24 11:09:11;;;;;;;10.00;9.10;;;29.70;34.40;;;;;;5042383;28;20537;-79
2021/07/24 11:11:44;;;;;;;10.40;9.50;;;29.50;34.50;;;;;;5041916;28;20448;-81
2021/07/24 11:14:48;;;;;;;9.97;8.50;;;29.30;35.30;;;;;;5043675;28;20439;-80
2021/07/24 11:17:16;;;;;;;9.27;8.47;;;29.10;34.30;;;;;;5044754;28;20489;-80
2021/07/24 11:19:45;;;;;;;9.70;8.80;;;29.10;34.80;;;;;;5041112;28;20465;-80
2021/07/24 11:22:15;;;;;;;16.57;9.07;;;29.10;35.20;;;;;;5041321;28;20491;-80
2021/07/24 11:24:44;;;;;;;9.77;8.77;;;29.20;36.10;;;;;;5041041;28;20420;-80
2021/07/24 11:27:12;;;;;;;12.73;9.20;;;29.40;35.40;;;;;;5046179;28;20456;-80
2021/07/24 11:29:39;;;;;;;9.23;8.33;;;29.80;34.40;;;;;;5043528;28;20482;-81
2021/07/24 11:32:07;;;;;;;11.23;8.70;;;29.80;32.80;;;;;;5041694;28;20455;-80
2021/07/24 11:34:37;;;;;;;8.00;7.33;;;30.00;32.90;;;;;;5040770;28;20480;-80
2021/07/24 11:37:04;;;;;;;9.60;8.70;;;30.30;32.70;;;;;;5042058;28;20481;-81
2021/07/24 11:39:33;;;;;;;9.17;8.20;;;30.70;31.80;;;;;;5041583;28;20445;-82
2021/07/24 11:42:00;;;;;;;9.17;7.80;;;30.60;31.30;;;;;;5041896;28;20460;-80
2021/07/24 11:44:30;;;;;;;8.30;7.50;;;30.50;31.70;;;;;;5042052;28;20488;-81
2021/07/24 11:47:01;;;;;;;8.53;7.73;;;30.20;32.20;;;;;;5042236;28;20438;-80
2021/07/24 11:49:29;;;;;;;7.33;6.60;;;30.10;32.40;;;;;;5040591;28;20437;-80
2021/07/24 11:51:56;;;;;;;9.67;7.10;;;29.90;32.10;;;;;;5043615;28;20447;-80
2021/07/24 11:54:33;;;;;;;7.97;7.17;;;29.90;32.50;;;;;;5040443;28;20500;-80
2021/07/24 11:57:01;;;;;;;6.83;5.77;;;30.10;31.90;;;;;;5041914;28;20448;-79
2021/07/24 11:59:31;;;;;;;7.93;6.37;;;30.40;30.20;;;;;;5041259;28;20492;-81
2021/07/24 12:01:58;;;;;;;9.53;5.27;;;30.50;30.00;;;;;;5042269;28;20456;-80
2021/07/24 12:04:26;;;;;;;7.07;4.57;;;30.60;28.80;;;;;;5040621;28;20445;-80
2021/07/24 12:06:56;;;;;;;4.60;4.17;;;30.60;27.80;;;;;;5040648;28;20470;-79
2021/07/24 12:09:23;;;;;;;4.70;4.00;;;30.80;27.40;;;;;;5046774;28;20459;-82
2021/07/24 12:11:52;;;;;;;4.47;4.07;;;31.10;26.80;;;;;;5043545;28;20866;-80
2021/07/24 12:14:22;;;;;;;4.30;3.90;;;30.90;27.00;;;;;;5044106;28;20432;-80
2021/07/24 12:17:03;;;;;;;4.47;4.07;;;30.80;27.40;;;;;;5042755;28;20437;-81
2021/07/24 12:19:38;;;;;;;4.77;4.33;;;30.70;27.40;;;;;;5041445;28;20473;-81
2021/07/24 12:22:16;;;;;;;5.23;4.13;;;30.70;27.40;;;;;;5041246;28;20541;-80
2021/07/24 12:24:44;;;;;;;8.37;4.80;;;30.60;27.40;;;;;;5040475;28;20492;-81
2021/07/24 12:27:12;;;;;;;7.63;4.60;;;30.50;27.30;;;;;;5041078;28;20425;-81
2021/07/24 12:29:53;;;;;;;8.03;4.33;;;30.70;27.40;;;;;;5041790;28;20448;-81
2021/07/24 12:32:22;;;;;;;4.77;4.33;;;30.50;27.70;;;;;;5045095;28;20467;-80
2021/07/24 12:34:49;;;;;;;4.97;4.47;;;30.20;28.70;;;;;;5040108;28;20424;-80
2021/07/24 12:37:31;;;;;;;4.83;4.33;;;30.20;28.50;;;;;;5042992;28;20427;-81
2021/07/24 12:40:12;;;;;;;5.20;4.70;;;30.40;28.00;;;;;;5048002;28;20438;-82
2021/07/24 12:42:38;;;;;;;4.90;4.50;;;30.40;28.70;;;;;;5045803;28;20509;-82
2021/07/24 12:45:07;;;;;;;4.80;4.20;;;30.60;28.50;;;;;;5049976;28;20463;-80